Main page
METAR-TAF:

METAR-TAF

Airports :

Ghriss Airport

Ghriss, Algeria

latitude: 35-12N, longitude: 000-08E, elevation: 514 m

Current weather observation

The report was made 43 minutes ago, at 01:00 UTC
Wind 5 kt from the North/Northwest
Temperature 23°C
Humidity 53%
Pressure 1016 hPa
Visibility 10 km or more
Scattered clouds at a height of 3000 ft

METAR: DAOV 220100Z 34005KT 9999 SCT030 23/13 Q1016

Time: 02:43 (01:43 UTC)

Forecast

The report was made 2 hours and 43 minutes ago, at 23:00 UTC
Forecast valid from 22 at 00 UTC to 22 at 09 UTC
Wind 2 kt from variable directions
Visibility: 8000 m
Scattered clouds at a height of 2600 ft
Temporary
from 22 at 02 UTC to 22 at 08 UTC
Visibility: 3000 m
Scattered clouds at a height of 1000 ft
mist
Probability 30% :
Temporary
from 22 at 05 UTC to 22 at 07 UTC
Visibility: 1500 m
Broken clouds at a height of 1000 ft
mist

TAF: DAOV 212300Z 2200/2209 VRB02KT 8000 SCT026 TEMPO 2202/2208 3000 BR SCT010 PROB30 TEMPO 2205/2207 1500 BR BKN010

Weather observations and forecasts of more than 4000 airports (METAR and TAF reports).

The available stations are represented by yellow and red dots on the map.

Hover mouse over dot to see the name of the station.

Then click to see weather observations and forecasts.

To change the map : click on the green buttons with a black cross to zoom in, on the green button with a dash to zoom out, or on the green arrows for adjacent maps.


METAR-TAF: